Time;durP1;ratioP1;P1;durP2;ratioP2;P2;SDS_P1;SDS_P2;PMS_P1;PMS_P2;Temp;Humidity;BMP_temperature;BMP_pressure;BME280_temperature;BME280_humidity;BME280_pressure;Samples;Min_cycle;Max_cycle;Signal;HPM_P1;HPM_P2
2022/03/25 00:02:20;;;;;;;10.40;7.53;;;;;;;;;;5073260;28;20225;-80
2022/03/25 00:04:48;;;;;;;12.30;8.20;;;;;;;;;;5073340;28;20626;-80
2022/03/25 00:07:15;;;;;;;12.68;8.77;;;;;;;;;;5073344;28;20201;-81
2022/03/25 00:09:43;;;;;;;10.43;8.10;;;;;;;;;;5073712;28;20286;-80
2022/03/25 00:12:11;;;;;;;16.17;8.13;;;;;;;;;;5073806;28;20193;-80
2022/03/25 00:14:39;;;;;;;9.88;7.45;;;;;;;;;;5073804;28;20583;-80
2022/03/25 00:17:07;;;;;;;10.48;7.90;;;;;;;;;;5073410;28;20208;-80
2022/03/25 00:19:34;;;;;;;9.65;8.20;;;;;;;;;;5073537;28;20197;-80
2022/03/25 00:22:01;;;;;;;9.00;7.40;;;;;;;;;;5072972;28;20229;-80
2022/03/25 00:24:29;;;;;;;10.38;7.47;;;;;;;;;;5073650;28;20205;-80
2022/03/25 00:26:56;;;;;;;9.90;6.93;;;;;;;;;;5072714;28;20205;-80
2022/03/25 00:29:25;;;;;;;12.23;7.50;;;;;;;;;;5073062;28;20208;-80
2022/03/25 00:31:52;;;;;;;13.77;7.63;;;;;;;;;;5072967;28;20205;-79
2022/03/25 00:34:19;;;;;;;11.02;7.82;;;;;;;;;;5073366;28;20204;-80
2022/03/25 00:36:47;;;;;;;9.48;6.72;;;;;;;;;;5072779;28;20205;-80
2022/03/25 00:39:14;;;;;;;16.75;9.40;;;;;;;;;;5072939;28;20208;-81
2022/03/25 00:41:44;;;;;;;10.55;7.60;;;;;;;;;;5072665;28;20603;-80
2022/03/25 00:44:12;;;;;;;14.25;8.10;;;;;;;;;;5073013;28;20267;-80
2022/03/25 00:46:41;;;;;;;13.73;8.98;;;;;;;;;;5072829;28;20201;-79
2022/03/25 00:49:09;;;;;;;9.50;7.07;;;;;;;;;;5073187;28;20201;-80
2022/03/25 00:51:36;;;;;;;10.48;7.10;;;;;;;;;;5072747;28;20196;-78
2022/03/25 00:54:04;;;;;;;10.80;8.57;;;;;;;;;;5072769;28;20228;-80
2022/03/25 00:56:31;;;;;;;13.52;9.43;;;;;;;;;;5072809;28;20300;-79
2022/03/25 00:58:59;;;;;;;10.70;8.23;;;;;;;;;;5073295;28;20200;-80
2022/03/25 01:01:26;;;;;;;9.50;8.18;;;;;;;;;;5072708;28;20201;-80
2022/03/25 01:03:55;;;;;;;11.35;8.50;;;;;;;;;;5072232;28;20225;-79
2022/03/25 01:06:24;;;;;;;15.68;10.25;;;;;;;;;;5072619;28;20204;-80
2022/03/25 01:08:51;;;;;;;13.60;8.40;;;;;;;;;;5077380;28;20768;-80
2022/03/25 01:11:19;;;;;;;13.38;8.82;;;;;;;;;;5080565;28;20212;-79
2022/03/25 01:13:46;;;;;;;11.55;8.52;;;;;;;;;;5079827;28;20220;-79
2022/03/25 01:16:13;;;;;;;9.70;8.55;;;;;;;;;;5079808;28;20205;-79
2022/03/25 01:18:41;;;;;;;11.30;8.38;;;;;;;;;;5079809;28;20196;-80
2022/03/25 01:21:10;;;;;;;10.55;8.55;;;;;;;;;;5074530;28;20342;-80
2022/03/25 01:23:37;;;;;;;10.65;8.93;;;;;;;;;;5073925;28;20322;-80
2022/03/25 01:26:05;;;;;;;10.10;8.25;;;;;;;;;;5073506;28;20200;-80
2022/03/25 01:28:34;;;;;;;11.25;8.63;;;;;;;;;;5073147;28;20209;-80
2022/03/25 01:31:02;;;;;;;10.85;9.27;;;;;;;;;;5073313;28;20201;-81
2022/03/25 01:33:30;;;;;;;11.68;9.38;;;;;;;;;;5072777;28;20229;-80
2022/03/25 01:35:58;;;;;;;9.90;8.88;;;;;;;;;;5073075;28;20200;-80
2022/03/25 01:38:26;;;;;;;13.77;9.50;;;;;;;;;;5072963;28;20231;-80
2022/03/25 01:40:54;;;;;;;11.23;8.93;;;;;;;;;;5072959;28;20204;-80
2022/03/25 01:43:21;;;;;;;15.15;10.55;;;;;;;;;;5072471;28;20228;-80
2022/03/25 01:45:48;;;;;;;11.18;9.50;;;;;;;;;;5073099;28;20231;-80
2022/03/25 01:48:17;;;;;;;13.90;9.48;;;;;;;;;;5072425;28;20201;-80
2022/03/25 01:50:46;;;;;;;10.55;9.02;;;;;;;;;;5072729;28;20201;-79
2022/03/25 01:53:15;;;;;;;13.77;9.23;;;;;;;;;;5072016;28;20217;-79
2022/03/25 01:55:51;;;;;;;13.50;9.82;;;;;;;;;;5072500;28;20203;-79
2022/03/25 01:58:19;;;;;;;12.30;9.93;;;;;;;;;;5072654;28;20288;-80
2022/03/25 02:00:46;;;;;;;14.13;9.50;;;;;;;;;;5072272;28;20201;-80
2022/03/25 02:03:14;;;;;;;10.57;8.90;;;;;;;;;;5071643;28;20229;-79
2022/03/25 02:05:41;;;;;;;10.70;8.20;;;;;;;;;;5052699;28;20221;-79
2022/03/25 02:08:09;;;;;;;12.23;9.10;;;;;;;;;;5052342;28;20561;-79
2022/03/25 02:10:37;;;;;;;14.13;10.68;;;;;;;;;;5052611;28;20201;-79
2022/03/25 02:13:06;;;;;;;13.32;9.77;;;;;;;;;;5051988;28;20222;-80
2022/03/25 02:15:35;;;;;;;14.05;10.80;;;;;;;;;;5056343;28;20231;-80
2022/03/25 02:18:05;;;;;;;11.40;8.95;;;;;;;;;;5055612;28;20670;-80
2022/03/25 02:20:33;;;;;;;10.98;8.35;;;;;;;;;;5056005;28;20574;-80
2022/03/25 02:23:01;;;;;;;12.32;8.93;;;;;;;;;;5056103;28;20229;-80
2022/03/25 02:25:30;;;;;;;15.13;9.40;;;;;;;;;;5056498;28;20236;-80
2022/03/25 02:27:59;;;;;;;11.68;8.10;;;;;;;;;;5056257;28;20202;-80
2022/03/25 02:30:27;;;;;;;14.40;9.80;;;;;;;;;;5056001;28;20289;-80
2022/03/25 02:32:57;;;;;;;13.00;8.70;;;;;;;;;;5055455;28;20226;-80
2022/03/25 02:35:37;;;;;;;11.23;7.95;;;;;;;;;;5073780;28;20291;-80
2022/03/25 02:38:07;;;;;;;13.07;8.07;;;;;;;;;;5075893;28;20209;-80
2022/03/25 02:40:34;;;;;;;10.68;7.75;;;;;;;;;;5076009;28;20262;-80
2022/03/25 02:43:02;;;;;;;12.45;8.77;;;;;;;;;;5074901;28;20232;-80
2022/03/25 02:45:29;;;;;;;10.23;8.60;;;;;;;;;;5074911;28;20212;-80
2022/03/25 02:47:56;;;;;;;11.35;9.15;;;;;;;;;;5075071;28;20214;-80
2022/03/25 02:50:25;;;;;;;9.60;8.30;;;;;;;;;;5075474;28;20200;-80
2022/03/25 02:52:52;;;;;;;9.95;7.45;;;;;;;;;;5075487;28;20292;-80
2022/03/25 02:55:21;;;;;;;11.70;8.73;;;;;;;;;;5075674;28;20229;-80
2022/03/25 02:57:48;;;;;;;10.85;8.60;;;;;;;;;;5074943;28;20201;-80
2022/03/25 03:00:16;;;;;;;14.02;8.15;;;;;;;;;;5074969;28;20201;-80
2022/03/25 03:02:43;;;;;;;13.93;8.57;;;;;;;;;;5075012;28;20224;-80
2022/03/25 03:05:11;;;;;;;8.98;8.05;;;;;;;;;;5074967;28;20205;-80
2022/03/25 03:07:38;;;;;;;10.82;8.40;;;;;;;;;;5075910;28;20283;-79
2022/03/25 03:10:08;;;;;;;15.82;9.63;;;;;;;;;;5074629;28;20201;-80
2022/03/25 03:12:37;;;;;;;10.50;8.23;;;;;;;;;;5075189;28;20228;-80
2022/03/25 03:15:07;;;;;;;12.77;7.88;;;;;;;;;;5074810;28;20212;-80
2022/03/25 03:17:35;;;;;;;9.65;8.38;;;;;;;;;;5074868;28;20205;-80
2022/03/25 03:20:04;;;;;;;11.10;8.35;;;;;;;;;;5074603;28;20205;-79
2022/03/25 03:22:31;;;;;;;11.73;8.57;;;;;;;;;;5074835;28;20712;-80
2022/03/25 03:24:59;;;;;;;12.18;7.70;;;;;;;;;;5073862;28;20243;-80
2022/03/25 03:27:27;;;;;;;11.43;8.52;;;;;;;;;;5075150;28;20271;-81
2022/03/25 03:29:56;;;;;;;11.10;8.43;;;;;;;;;;5074049;28;20266;-80
2022/03/25 03:32:25;;;;;;;17.27;9.20;;;;;;;;;;5074470;28;20282;-80
2022/03/25 03:34:52;;;;;;;11.20;8.20;;;;;;;;;;5074411;28;20205;-80
2022/03/25 03:37:20;;;;;;;10.48;8.35;;;;;;;;;;5074888;28;20209;-81
2022/03/25 03:39:47;;;;;;;12.05;8.60;;;;;;;;;;5074190;28;20568;-80
2022/03/25 03:42:15;;;;;;;12.10;8.60;;;;;;;;;;5074497;28;20228;-80
2022/03/25 03:44:42;;;;;;;11.75;9.63;;;;;;;;;;5073921;28;20228;-81
2022/03/25 03:47:11;;;;;;;12.35;8.50;;;;;;;;;;5074180;28;20201;-80
2022/03/25 03:49:39;;;;;;;12.85;8.90;;;;;;;;;;5074117;28;20662;-79
2022/03/25 03:52:08;;;;;;;13.35;9.10;;;;;;;;;;5074045;28;20723;-80
2022/03/25 03:54:37;;;;;;;11.73;8.85;;;;;;;;;;5074011;28;20293;-81
2022/03/25 03:57:07;;;;;;;11.15;8.43;;;;;;;;;;5074116;28;20201;-81
2022/03/25 03:59:34;;;;;;;13.93;10.02;;;;;;;;;;5074208;28;20212;-80
2022/03/25 04:02:03;;;;;;;12.05;9.32;;;;;;;;;;5073956;28;20205;-81
2022/03/25 04:04:31;;;;;;;13.25;10.40;;;;;;;;;;5073999;28;20327;-81
2022/03/25 04:06:59;;;;;;;14.98;9.63;;;;;;;;;;5073959;28;20201;-80
2022/03/25 04:09:26;;;;;;;13.85;9.85;;;;;;;;;;5073787;28;20637;-80
2022/03/25 04:11:54;;;;;;;13.07;10.40;;;;;;;;;;5073802;28;20692;-80
2022/03/25 04:14:21;;;;;;;15.57;11.75;;;;;;;;;;5073048;28;20224;-80
2022/03/25 04:16:48;;;;;;;12.05;9.88;;;;;;;;;;5073400;28;20201;-80
2022/03/25 04:19:16;;;;;;;14.07;11.20;;;;;;;;;;5073617;28;20197;-80
2022/03/25 04:21:44;;;;;;;15.45;11.65;;;;;;;;;;5073288;28;20278;-81
2022/03/25 04:24:12;;;;;;;11.95;9.27;;;;;;;;;;5073326;28;20229;-80
2022/03/25 04:26:39;;;;;;;11.05;8.13;;;;;;;;;;5073254;28;20201;-80
2022/03/25 04:29:07;;;;;;;11.98;8.48;;;;;;;;;;5073117;28;20204;-80
2022/03/25 04:31:34;;;;;;;13.45;9.30;;;;;;;;;;5073321;28;20205;-80
2022/03/25 04:34:03;;;;;;;10.70;9.45;;;;;;;;;;5073407;28;20217;-80
2022/03/25 04:36:30;;;;;;;10.90;8.18;;;;;;;;;;5072982;28;20201;-80
2022/03/25 04:38:59;;;;;;;11.32;9.52;;;;;;;;;;5072832;28;20239;-80
2022/03/25 04:41:26;;;;;;;12.23;8.50;;;;;;;;;;5072686;28;20637;-80
2022/03/25 04:43:53;;;;;;;11.02;8.50;;;;;;;;;;5072628;28;20629;-80
2022/03/25 04:46:21;;;;;;;11.20;8.93;;;;;;;;;;5072939;28;20201;-80
2022/03/25 04:48:48;;;;;;;11.43;8.48;;;;;;;;;;5073489;28;20208;-80
2022/03/25 04:51:15;;;;;;;14.43;10.38;;;;;;;;;;5072785;28;20200;-80
2022/03/25 04:53:43;;;;;;;13.05;10.32;;;;;;;;;;5073479;28;20221;-80
2022/03/25 04:56:11;;;;;;;11.68;9.60;;;;;;;;;;5073541;28;20227;-80
2022/03/25 04:58:39;;;;;;;12.25;10.45;;;;;;;;;;5073395;28;20201;-80
2022/03/25 05:01:06;;;;;;;19.10;10.65;;;;;;;;;;5073445;28;20286;-80
2022/03/25 05:03:33;;;;;;;17.38;11.35;;;;;;;;;;5073547;28;20692;-80
2022/03/25 05:06:01;;;;;;;15.25;9.90;;;;;;;;;;5072789;28;20225;-80
2022/03/25 05:08:28;;;;;;;13.50;9.98;;;;;;;;;;5073068;28;20266;-79
2022/03/25 05:10:56;;;;;;;13.80;11.27;;;;;;;;;;5073280;28;20197;-80
2022/03/25 05:13:25;;;;;;;13.60;8.65;;;;;;;;;;5073260;28;20708;-80
2022/03/25 05:15:52;;;;;;;12.52;9.23;;;;;;;;;;5072736;28;20199;-82
2022/03/25 05:18:19;;;;;;;12.77;10.32;;;;;;;;;;5073107;28;20576;-80
2022/03/25 05:20:47;;;;;;;13.70;10.05;;;;;;;;;;5073089;28;20212;-80
2022/03/25 05:23:14;;;;;;;14.82;10.63;;;;;;;;;;5073010;28;20254;-80
2022/03/25 05:25:41;;;;;;;13.23;10.70;;;;;;;;;;5072395;28;20220;-80
2022/03/25 05:28:09;;;;;;;12.43;9.80;;;;;;;;;;5073297;28;20212;-80
2022/03/25 05:30:37;;;;;;;14.43;9.85;;;;;;;;;;5072602;28;20736;-82
2022/03/25 05:33:05;;;;;;;12.63;9.20;;;;;;;;;;5072536;28;20221;-81
2022/03/25 05:35:33;;;;;;;17.25;10.18;;;;;;;;;;5072361;28;20579;-81
2022/03/25 05:38:01;;;;;;;13.50;10.02;;;;;;;;;;5072394;28;20201;-81
2022/03/25 05:40:28;;;;;;;15.80;10.60;;;;;;;;;;5072934;28;20250;-81
2022/03/25 05:42:56;;;;;;;15.77;9.43;;;;;;;;;;5072444;28;20646;-81
2022/03/25 05:45:26;;;;;;;15.75;10.45;;;;;;;;;;5073127;28;20225;-81
2022/03/25 05:47:55;;;;;;;12.90;8.57;;;;;;;;;;5076508;28;20231;-75
2022/03/25 05:50:22;;;;;;;13.20;9.77;;;;;;;;;;5076410;28;20201;-76
2022/03/25 05:52:50;;;;;;;11.02;8.48;;;;;;;;;;5075696;28;20279;-75
2022/03/25 05:55:18;;;;;;;12.63;9.13;;;;;;;;;;5075664;28;20318;-76
2022/03/25 05:57:45;;;;;;;10.80;8.55;;;;;;;;;;5075052;28;20199;-76
2022/03/25 06:00:14;;;;;;;11.77;8.30;;;;;;;;;;5074990;28;20741;-76
2022/03/25 06:02:43;;;;;;;9.75;7.93;;;;;;;;;;5074618;28;20289;-75
2022/03/25 06:05:13;;;;;;;12.27;7.07;;;;;;;;;;5075061;28;20811;-75
2022/03/25 06:07:43;;;;;;;9.10;6.35;;;;;;;;;;5075258;28;20266;-76
2022/03/25 06:10:12;;;;;;;10.30;7.28;;;;;;;;;;5075275;28;20200;-76
2022/03/25 06:12:40;;;;;;;7.93;6.20;;;;;;;;;;5074716;28;20223;-76
2022/03/25 06:15:09;;;;;;;14.73;10.10;;;;;;;;;;5075215;28;20291;-76
2022/03/25 06:17:43;;;;;;;13.55;9.00;;;;;;;;;;5074839;28;20205;-76
2022/03/25 06:20:13;;;;;;;11.95;8.85;;;;;;;;;;5074954;28;20605;-74
2022/03/25 06:22:41;;;;;;;11.43;8.57;;;;;;;;;;5074275;28;20257;-75
2022/03/25 06:25:10;;;;;;;10.20;7.70;;;;;;;;;;5074413;28;20644;-75
2022/03/25 06:27:49;;;;;;;8.70;7.57;;;;;;;;;;5077625;28;20246;-75
2022/03/25 06:30:17;;;;;;;8.65;6.80;;;;;;;;;;5072385;28;20203;-76
2022/03/25 06:32:45;;;;;;;8.45;7.40;;;;;;;;;;5077150;28;20281;-76
2022/03/25 06:35:14;;;;;;;10.50;7.60;;;;;;;;;;5076774;28;20739;-76
2022/03/25 06:37:41;;;;;;;8.13;6.47;;;;;;;;;;5074084;28;20212;-76
2022/03/25 06:40:11;;;;;;;9.95;6.63;;;;;;;;;;5074420;28;20235;-75
2022/03/25 06:42:40;;;;;;;10.00;7.35;;;;;;;;;;5074075;28;20229;-76
2022/03/25 06:45:10;;;;;;;8.48;6.40;;;;;;;;;;5074849;28;20242;-76
2022/03/25 06:47:38;;;;;;;8.85;6.97;;;;;;;;;;5074322;28;20631;-76
2022/03/25 06:50:07;;;;;;;9.50;6.18;;;;;;;;;;5074129;28;20201;-76
2022/03/25 06:52:37;;;;;;;6.38;5.30;;;;;;;;;;5073850;28;20221;-75
2022/03/25 06:55:06;;;;;;;8.75;6.20;;;;;;;;;;5079661;28;20261;-76
2022/03/25 06:57:34;;;;;;;8.82;6.45;;;;;;;;;;5067818;28;20243;-76
2022/03/25 07:00:02;;;;;;;10.88;8.13;;;;;;;;;;5070614;28;20205;-77
2022/03/25 07:02:30;;;;;;;12.30;9.43;;;;;;;;;;5067676;28;20229;-76
2022/03/25 07:04:58;;;;;;;11.48;7.80;;;;;;;;;;5068068;28;20254;-75
2022/03/25 07:07:27;;;;;;;9.15;7.38;;;;;;;;;;5067119;28;20286;-75
2022/03/25 07:09:56;;;;;;;7.53;6.03;;;;;;;;;;5068525;28;20235;-76
2022/03/25 07:12:24;;;;;;;10.40;7.50;;;;;;;;;;5078878;28;20290;-76
2022/03/25 07:14:51;;;;;;;10.50;8.07;;;;;;;;;;5075014;28;20200;-76
2022/03/25 07:17:19;;;;;;;9.55;7.18;;;;;;;;;;5073817;28;20639;-77
2022/03/25 07:19:46;;;;;;;11.48;7.47;;;;;;;;;;5074139;28;20208;-76
2022/03/25 07:22:13;;;;;;;9.38;8.32;;;;;;;;;;5073022;28;20266;-76
2022/03/25 07:24:40;;;;;;;11.02;7.80;;;;;;;;;;5073221;28;20278;-76
2022/03/25 07:27:09;;;;;;;7.88;6.10;;;;;;;;;;5073500;28;20229;-75
2022/03/25 07:29:36;;;;;;;9.95;7.85;;;;;;;;;;5073001;28;20291;-76
2022/03/25 07:32:05;;;;;;;10.20;8.57;;;;;;;;;;5072693;28;20681;-75
2022/03/25 07:34:35;;;;;;;9.25;7.35;;;;;;;;;;5073278;28;20244;-76
2022/03/25 07:37:03;;;;;;;10.95;8.43;;;;;;;;;;5074822;28;20238;-76
2022/03/25 07:39:31;;;;;;;9.55;7.20;;;;;;;;;;5073466;28;20231;-77
2022/03/25 07:41:58;;;;;;;9.90;7.22;;;;;;;;;;5072649;28;20342;-76
2022/03/25 07:44:27;;;;;;;11.90;8.70;;;;;;;;;;5073714;28;20213;-77
2022/03/25 07:46:54;;;;;;;10.65;7.82;;;;;;;;;;5072986;28;20282;-77
2022/03/25 07:49:22;;;;;;;6.07;5.47;;;;;;;;;;5074474;28;20254;-77
2022/03/25 07:51:49;;;;;;;6.22;5.43;;;;;;;;;;5072765;28;20208;-76
2022/03/25 07:54:17;;;;;;;6.28;4.97;;;;;;;;;;5072486;28;20275;-77
2022/03/25 07:56:44;;;;;;;12.55;8.80;;;;;;;;;;5072620;28;20206;-77
2022/03/25 07:59:12;;;;;;;11.73;7.22;;;;;;;;;;5072954;28;20230;-77
2022/03/25 08:01:41;;;;;;;7.50;5.55;;;;;;;;;;5073105;28;20291;-77
2022/03/25 08:04:08;;;;;;;7.65;6.75;;;;;;;;;;5074975;28;20213;-77
2022/03/25 08:06:35;;;;;;;9.52;8.25;;;;;;;;;;5076240;28;20220;-77
2022/03/25 08:09:03;;;;;;;9.15;6.80;;;;;;;;;;5074105;28;20635;-77
2022/03/25 08:11:30;;;;;;;8.90;7.97;;;;;;;;;;5074433;28;20204;-77
2022/03/25 08:13:57;;;;;;;8.60;6.88;;;;;;;;;;5072362;28;20260;-77
2022/03/25 08:16:25;;;;;;;9.30;6.45;;;;;;;;;;5072320;28;20212;-77
2022/03/25 08:18:53;;;;;;;7.68;6.53;;;;;;;;;;5072251;28;20209;-77
2022/03/25 08:21:21;;;;;;;8.30;6.47;;;;;;;;;;5074895;28;20327;-76
2022/03/25 08:29:18;;;;;;;6.18;5.38;;;;;;;;;;5069779;28;20215;-77
2022/03/25 08:31:45;;;;;;;8.93;7.43;;;;;;;;;;5072484;28;20239;-77
2022/03/25 08:34:15;;;;;;;12.68;7.80;;;;;;;;;;5072112;28;20574;-77
2022/03/25 08:36:42;;;;;;;9.73;7.03;;;;;;;;;;5072725;28;20201;-77
2022/03/25 08:39:09;;;;;;;9.63;7.50;;;;;;;;;;5072653;28;20209;-77
2022/03/25 08:41:37;;;;;;;9.13;6.65;;;;;;;;;;5072459;28;20366;-77
2022/03/25 08:44:05;;;;;;;10.73;7.53;;;;;;;;;;5072311;28;20365;-77
2022/03/25 08:46:34;;;;;;;14.57;9.35;;;;;;;;;;5072124;28;20270;-78
2022/03/25 08:49:01;;;;;;;11.45;8.88;;;;;;;;;;5072139;28;20204;-77
2022/03/25 08:51:30;;;;;;;10.18;7.32;;;;;;;;;;5072093;28;20564;-77
2022/03/25 08:53:58;;;;;;;11.10;6.40;;;;;;;;;;5071823;28;20306;-77
2022/03/25 08:56:27;;;;;;;7.32;6.63;;;;;;;;;;5071890;28;20247;-77
2022/03/25 08:58:58;;;;;;;7.90;5.63;;;;;;;;;;5073977;28;20197;-77
2022/03/25 09:01:25;;;;;;;6.13;4.85;;;;;;;;;;5071904;28;20209;-77
2022/03/25 09:03:52;;;;;;;5.13;4.63;;;;;;;;;;5071721;28;20225;-77
2022/03/25 09:06:20;;;;;;;6.50;5.50;;;;;;;;;;5071620;28;20205;-77
2022/03/25 09:08:49;;;;;;;7.07;5.82;;;;;;;;;;5071963;28;20262;-77
2022/03/25 09:11:16;;;;;;;8.13;5.32;;;;;;;;;;5071415;28;20205;-77
2022/03/25 09:13:44;;;;;;;6.43;5.25;;;;;;;;;;5071940;28;20240;-77
2022/03/25 09:16:13;;;;;;;9.15;6.65;;;;;;;;;;5071828;28;20205;-77
2022/03/25 09:18:40;;;;;;;7.72;6.50;;;;;;;;;;5072619;28;20201;-77
2022/03/25 09:21:08;;;;;;;9.15;5.90;;;;;;;;;;5072326;28;20254;-77
2022/03/25 09:23:35;;;;;;;9.95;6.75;;;;;;;;;;5071093;28;20701;-76
2022/03/25 09:26:04;;;;;;;6.35;5.65;;;;;;;;;;5071356;28;20235;-77
2022/03/25 09:28:31;;;;;;;8.43;6.82;;;;;;;;;;5071393;28;20225;-77
2022/03/25 09:30:58;;;;;;;9.23;6.70;;;;;;;;;;5072235;28;20205;-76
2022/03/25 09:33:27;;;;;;;7.82;5.40;;;;;;;;;;5071055;28;20229;-77
2022/03/25 09:35:55;;;;;;;11.70;6.15;;;;;;;;;;5073900;28;20643;-77
2022/03/25 09:38:22;;;;;;;8.18;5.90;;;;;;;;;;5075386;28;20193;-77
2022/03/25 09:40:50;;;;;;;8.45;6.10;;;;;;;;;;5074064;28;20200;-77
2022/03/25 09:43:22;;;;;;;6.20;5.47;;;;;;;;;;5071584;28;20221;-77
2022/03/25 09:45:49;;;;;;;5.05;4.55;;;;;;;;;;5071417;28;20204;-77
2022/03/25 09:48:17;;;;;;;5.28;4.78;;;;;;;;;;5064801;28;20220;-76
2022/03/25 09:50:44;;;;;;;5.65;4.45;;;;;;;;;;5064912;28;20283;-77
2022/03/25 09:53:12;;;;;;;5.30;4.22;;;;;;;;;;5068954;28;20212;-77
2022/03/25 09:55:41;;;;;;;5.05;4.35;;;;;;;;;;5071574;28;20213;-76
2022/03/25 09:58:10;;;;;;;4.68;3.92;;;;;;;;;;5071922;28;20248;-76
2022/03/25 10:00:39;;;;;;;5.43;4.20;;;;;;;;;;5071817;28;20205;-77
2022/03/25 10:03:06;;;;;;;5.25;4.35;;;;;;;;;;5071607;28;20232;-78
2022/03/25 10:05:33;;;;;;;6.00;4.60;;;;;;;;;;5071338;28;20239;-76
2022/03/25 10:08:00;;;;;;;5.85;4.35;;;;;;;;;;5071332;28;20229;-77
2022/03/25 10:10:30;;;;;;;5.47;4.47;;;;;;;;;;5071825;28;20669;-77
2022/03/25 10:13:04;;;;;;;4.32;3.92;;;;;;;;;;5066047;28;20256;-77
2022/03/25 10:15:32;;;;;;;6.03;4.50;;;;;;;;;;5071483;28;20209;-76
2022/03/25 10:18:04;;;;;;;5.18;4.63;;;;;;;;;;5071376;28;20687;-78
2022/03/25 10:20:33;;;;;;;7.63;4.78;;;;;;;;;;5071703;28;20738;-76
2022/03/25 10:23:07;;;;;;;5.45;4.22;;;;;;;;;;5071165;28;20723;-77
2022/03/25 10:25:41;;;;;;;6.07;5.47;;;;;;;;;;5071879;28;20771;-77
2022/03/25 10:28:25;;;;;;;5.10;4.18;;;;;;;;;;5071283;28;20236;-77
2022/03/25 10:30:54;;;;;;;6.30;5.20;;;;;;;;;;5073174;28;20200;-76
2022/03/25 10:33:29;;;;;;;5.75;4.60;;;;;;;;;;5070677;28;20252;-76
2022/03/25 10:35:59;;;;;;;4.97;4.45;;;;;;;;;;5066918;28;20204;-78
2022/03/25 10:38:29;;;;;;;11.57;8.45;;;;;;;;;;5075729;28;20201;-78
2022/03/25 10:40:59;;;;;;;7.78;6.68;;;;;;;;;;5074165;28;20285;-78
2022/03/25 10:43:26;;;;;;;8.30;6.35;;;;;;;;;;5075392;28;20239;-78
2022/03/25 10:45:53;;;;;;;7.18;6.43;;;;;;;;;;5077898;28;20247;-77
2022/03/25 10:48:24;;;;;;;7.30;6.10;;;;;;;;;;5075195;28;20232;-78
2022/03/25 10:51:01;;;;;;;5.82;5.22;;;;;;;;;;5075092;28;20622;-77
2022/03/25 10:53:30;;;;;;;8.10;6.88;;;;;;;;;;5074420;28;20282;-77
2022/03/25 10:56:00;;;;;;;9.63;8.38;;;;;;;;;;5074297;28;20213;-77
2022/03/25 10:58:28;;;;;;;7.88;6.47;;;;;;;;;;5074409;28;20250;-77
2022/03/25 11:00:55;;;;;;;6.53;5.38;;;;;;;;;;5074416;28;20212;-77
2022/03/25 11:03:24;;;;;;;10.75;6.20;;;;;;;;;;5073301;28;20224;-77
2022/03/25 11:05:53;;;;;;;7.53;5.97;;;;;;;;;;5074936;28;20201;-78
2022/03/25 11:08:21;;;;;;;7.97;6.40;;;;;;;;;;5074723;28;20626;-78
2022/03/25 11:10:48;;;;;;;8.25;5.97;;;;;;;;;;5074695;28;20262;-76
2022/03/25 11:13:16;;;;;;;5.70;4.72;;;;;;;;;;5074258;28;20661;-78
2022/03/25 11:15:46;;;;;;;5.32;4.82;;;;;;;;;;5074154;28;20209;-78
2022/03/25 11:18:15;;;;;;;5.75;4.80;;;;;;;;;;5074210;28;20643;-78
2022/03/25 11:20:43;;;;;;;8.82;5.72;;;;;;;;;;5073617;28;20205;-77
2022/03/25 11:23:14;;;;;;;5.25;4.75;;;;;;;;;;5073327;28;20274;-78
2022/03/25 11:25:46;;;;;;;5.35;4.40;;;;;;;;;;5074106;28;20201;-77
2022/03/25 11:28:19;;;;;;;5.60;4.95;;;;;;;;;;5073637;28;20270;-77
2022/03/25 11:30:56;;;;;;;6.15;4.68;;;;;;;;;;5075257;28;20227;-77
2022/03/25 11:33:24;;;;;;;7.90;5.80;;;;;;;;;;5073183;28;20236;-77
2022/03/25 11:36:13;;;;;;;6.18;5.30;;;;;;;;;;5073489;28;20215;-76
2022/03/25 11:38:41;;;;;;;5.72;5.13;;;;;;;;;;5073655;28;20641;-77
2022/03/25 11:41:25;;;;;;;6.72;5.53;;;;;;;;;;5073328;28;20208;-77
2022/03/25 11:44:26;;;;;;;6.78;5.35;;;;;;;;;;5073518;28;20607;-77
2022/03/25 11:47:18;;;;;;;6.60;5.18;;;;;;;;;;5072733;28;20616;-78
2022/03/25 11:49:46;;;;;;;7.90;5.82;;;;;;;;;;5067644;28;20233;-78
2022/03/25 11:52:33;;;;;;;7.78;5.20;;;;;;;;;;5067371;28;20205;-78
2022/03/25 11:55:02;;;;;;;5.30;4.10;;;;;;;;;;5074015;28;20213;-78
2022/03/25 11:57:32;;;;;;;7.15;5.18;;;;;;;;;;5073676;28;20556;-79
2022/03/25 12:00:02;;;;;;;6.28;4.10;;;;;;;;;;5074610;28;20205;-78
2022/03/25 12:02:36;;;;;;;3.60;2.72;;;;;;;;;;5073604;28;20582;-78
2022/03/25 12:05:06;;;;;;;4.50;3.72;;;;;;;;;;5075537;28;20558;-78
2022/03/25 12:07:35;;;;;;;6.53;4.15;;;;;;;;;;5073219;28;20215;-76
2022/03/25 12:10:03;;;;;;;4.15;3.75;;;;;;;;;;5072548;28;20236;-78
2022/03/25 12:13:03;;;;;;;4.38;3.97;;;;;;;;;;5072659;28;20267;-78
2022/03/25 12:15:41;;;;;;;3.03;2.45;;;;;;;;;;5011133;28;20214;-78
2022/03/25 12:18:44;;;;;;;3.60;2.97;;;;;;;;;;5011002;28;20242;-78
2022/03/25 12:21:31;;;;;;;5.65;4.57;;;;;;;;;;5058604;28;20589;-78
2022/03/25 12:24:02;;;;;;;5.72;5.05;;;;;;;;;;5051727;28;20229;-78
2022/03/25 12:26:30;;;;;;;5.13;4.00;;;;;;;;;;5072914;28;20227;-77
2022/03/25 12:28:58;;;;;;;4.10;3.67;;;;;;;;;;5072670;28;20294;-78
2022/03/25 12:31:26;;;;;;;5.07;3.90;;;;;;;;;;5074005;28;20619;-78
2022/03/25 12:33:54;;;;;;;3.75;3.45;;;;;;;;;;5072526;28;20713;-78
2022/03/25 12:36:22;;;;;;;3.35;3.05;;;;;;;;;;5073063;28;20209;-78
2022/03/25 12:38:49;;;;;;;4.40;4.00;;;;;;;;;;5075140;28;20205;-79
2022/03/25 12:41:27;;;;;;;6.35;4.55;;;;;;;;;;5073992;28;20263;-78
2022/03/25 12:43:58;;;;;;;3.60;3.28;;;;;;;;;;5073200;28;20600;-78
2022/03/25 12:46:26;;;;;;;4.53;3.53;;;;;;;;;;5067436;28;20213;-79
2022/03/25 12:49:01;;;;;;;3.53;3.22;;;;;;;;;;5067156;28;20646;-78
2022/03/25 12:51:29;;;;;;;5.90;4.05;;;;;;;;;;5068085;28;20208;-79
2022/03/25 12:53:56;;;;;;;4.65;3.92;;;;;;;;;;5072323;28;20225;-79
2022/03/25 12:56:23;;;;;;;4.15;3.17;;;;;;;;;;5072506;28;20215;-79
2022/03/25 12:58:53;;;;;;;3.53;3.22;;;;;;;;;;5072251;28;20278;-79
2022/03/25 13:01:21;;;;;;;5.03;4.18;;;;;;;;;;5073112;28;20208;-79
2022/03/25 13:03:49;;;;;;;5.22;4.18;;;;;;;;;;5072780;28;20228;-79
2022/03/25 13:06:19;;;;;;;5.13;4.55;;;;;;;;;;5073209;28;20563;-79
2022/03/25 13:08:47;;;;;;;6.97;5.22;;;;;;;;;;5072348;28;20209;-79
2022/03/25 13:11:15;;;;;;;5.25;3.83;;;;;;;;;;5073477;28;20251;-78
2022/03/25 13:13:42;;;;;;;4.65;3.85;;;;;;;;;;5072445;28;20225;-78
2022/03/25 13:16:11;;;;;;;3.30;3.00;;;;;;;;;;5072612;28;20235;-77
2022/03/25 13:18:40;;;;;;;4.40;3.90;;;;;;;;;;5073409;28;20653;-78
2022/03/25 13:21:09;;;;;;;3.08;2.75;;;;;;;;;;5073340;28;20209;-78
2022/03/25 13:23:37;;;;;;;2.47;2.13;;;;;;;;;;5072670;28;20240;-77
2022/03/25 13:26:07;;;;;;;4.82;2.75;;;;;;;;;;5072106;28;20205;-77
2022/03/25 13:28:36;;;;;;;4.38;3.50;;;;;;;;;;5072656;28;20259;-79
2022/03/25 13:31:06;;;;;;;4.82;3.95;;;;;;;;;;5079478;28;20242;-78
2022/03/25 13:33:50;;;;;;;4.55;3.17;;;;;;;;;;5072193;28;20744;-78
2022/03/25 13:36:26;;;;;;;3.55;3.25;;;;;;;;;;5072963;28;20208;-78
2022/03/25 13:38:54;;;;;;;4.50;3.53;;;;;;;;;;5073023;28;20215;-77
2022/03/25 13:41:23;;;;;;;4.15;3.50;;;;;;;;;;5073237;28;20237;-78
2022/03/25 13:43:52;;;;;;;4.40;4.00;;;;;;;;;;5072814;28;20275;-77
2022/03/25 13:46:22;;;;;;;3.88;3.53;;;;;;;;;;5066510;28;20216;-78
2022/03/25 13:48:53;;;;;;;3.00;2.70;;;;;;;;;;5066610;28;20338;-78
2022/03/25 13:51:23;;;;;;;3.70;2.70;;;;;;;;;;5072674;28;20732;-77
2022/03/25 13:53:57;;;;;;;3.42;3.08;;;;;;;;;;5073326;28;20251;-77
2022/03/25 13:56:24;;;;;;;3.60;3.25;;;;;;;;;;5072616;28;20216;-79
2022/03/25 13:58:54;;;;;;;3.85;3.38;;;;;;;;;;5072167;28;20204;-78
2022/03/25 14:01:35;;;;;;;4.43;3.88;;;;;;;;;;5072476;28;20723;-78
2022/03/25 14:04:07;;;;;;;4.70;3.08;;;;;;;;;;5071807;28;20240;-78
2022/03/25 14:06:37;;;;;;;5.60;4.25;;;;;;;;;;5072697;28;20205;-77
2022/03/25 14:09:04;;;;;;;5.45;4.18;;;;;;;;;;5073696;28;20227;-77
2022/03/25 14:11:35;;;;;;;7.25;5.20;;;;;;;;;;5077705;28;20228;-77
2022/03/25 14:14:04;;;;;;;5.82;4.60;;;;;;;;;;5076196;28;20228;-77
2022/03/25 14:16:34;;;;;;;5.45;4.18;;;;;;;;;;5075390;28;20216;-77
2022/03/25 14:19:03;;;;;;;4.93;4.32;;;;;;;;;;5075389;28;20209;-78
2022/03/25 14:21:33;;;;;;;4.70;4.00;;;;;;;;;;5077380;28;20201;-76
2022/03/25 14:26:49;;;;;;;5.75;4.63;;;;;;;;;;5077591;28;20277;-77
2022/03/25 14:29:16;;;;;;;7.65;5.32;;;;;;;;;;5078291;28;20205;-77
2022/03/25 14:31:44;;;;;;;8.70;6.22;;;;;;;;;;5080037;28;20229;-78
2022/03/25 14:34:13;;;;;;;8.30;6.22;;;;;;;;;;5076264;28;20288;-77
2022/03/25 14:36:41;;;;;;;10.10;7.97;;;;;;;;;;5076166;28;20201;-77
2022/03/25 14:39:10;;;;;;;6.00;5.18;;;;;;;;;;5075987;28;20680;-77
2022/03/25 14:41:39;;;;;;;5.32;4.55;;;;;;;;;;5075001;28;20243;-77
2022/03/25 14:44:07;;;;;;;7.78;5.75;;;;;;;;;;5075525;28;20232;-77
2022/03/25 14:46:37;;;;;;;10.15;7.25;;;;;;;;;;5075909;28;20300;-77
2022/03/25 14:49:05;;;;;;;9.43;7.03;;;;;;;;;;5076087;28;20236;-77
2022/03/25 14:51:34;;;;;;;9.27;6.80;;;;;;;;;;5075626;28;20232;-78
2022/03/25 14:54:01;;;;;;;7.97;5.65;;;;;;;;;;5075924;28;20224;-77
2022/03/25 14:56:29;;;;;;;4.97;4.45;;;;;;;;;;5076028;28;20209;-77